Terminal Aerodrome Forecast
Issued by NWS

Home | Current Version | Previous Version | Text Only | Print | Product List | Glossary On
Versions: 1 2 3 4 5 6 7 8 9 10 11 12 13 14 15 16 17
978
FTUS43 KDLH 201601 AAA
TAFBRD
TAF AMD
KBRD 201601Z 2016/2112 35010G18KT P6SM FEW030
     FM201800 34009KT P6SM SCT050
     FM210100 34002KT P6SM SKC=

USA.gov is the U.S. government's official web portal to all federal, state and local government web resources and services.